sensor_id;sensor_type;location;lat;lon;timestamp;pressure;altitude;pressure_sealevel;temperature;humidity
58975;BME280;44751;52.236;5.178;2023-05-09T00:01:24;101639.69;;;14.41;100.00
58975;BME280;44751;52.236;5.178;2023-05-09T00:03:54;101640.50;;;14.41;100.00
58975;BME280;44751;52.236;5.178;2023-05-09T00:06:22;101632.34;;;14.41;100.00
58975;BME280;44751;52.236;5.178;2023-05-09T00:08:50;101623.66;;;14.31;100.00
58975;BME280;44751;52.236;5.178;2023-05-09T00:11:16;101622.06;;;14.37;100.00
58975;BME280;44751;52.236;5.178;2023-05-09T00:13:43;101622.44;;;14.33;100.00
58975;BME280;44751;52.236;5.178;2023-05-09T00:16:09;101616.34;;;14.31;100.00
58975;BME280;44751;52.236;5.178;2023-05-09T00:18:38;101619.22;;;14.30;100.00
58975;BME280;44751;52.236;5.178;2023-05-09T00:21:07;101616.34;;;14.31;100.00
58975;BME280;44751;52.236;5.178;2023-05-09T00:23:34;101609.03;;;14.32;100.00
58975;BME280;44751;52.236;5.178;2023-05-09T00:26:00;101605.66;;;14.30;100.00
58975;BME280;44751;52.236;5.178;2023-05-09T00:28:27;101611.47;;;14.27;100.00
58975;BME280;44751;52.236;5.178;2023-05-09T00:30:53;101604.84;;;14.29;100.00
58975;BME280;44751;52.236;5.178;2023-05-09T00:33:25;101601.75;;;14.32;100.00
58975;BME280;44751;52.236;5.178;2023-05-09T00:35:52;101596.59;;;14.38;100.00
58975;BME280;44751;52.236;5.178;2023-05-09T00:38:19;101601.09;;;14.30;100.00
58975;BME280;44751;52.236;5.178;2023-05-09T00:40:46;101590.03;;;14.32;100.00
58975;BME280;44751;52.236;5.178;2023-05-09T00:43:12;101593.03;;;14.37;100.00
58975;BME280;44751;52.236;5.178;2023-05-09T00:45:39;101591.63;;;14.41;100.00
58975;BME280;44751;52.236;5.178;2023-05-09T00:48:08;101585.25;;;14.34;100.00
58975;BME280;44751;52.236;5.178;2023-05-09T00:50:35;101587.59;;;14.37;100.00
58975;BME280;44751;52.236;5.178;2023-05-09T00:53:02;101587.78;;;14.36;100.00
58975;BME280;44751;52.236;5.178;2023-05-09T00:55:29;101585.47;;;14.32;100.00
58975;BME280;44751;52.236;5.178;2023-05-09T00:57:57;101582.09;;;14.30;100.00
58975;BME280;44751;52.236;5.178;2023-05-09T01:00:26;101584.44;;;14.33;100.00
58975;BME280;44751;52.236;5.178;2023-05-09T01:02:54;101573.75;;;14.32;100.00
58975;BME280;44751;52.236;5.178;2023-05-09T01:05:28;101569.56;;;14.29;100.00
58975;BME280;44751;52.236;5.178;2023-05-09T01:08:13;101576.19;;;14.27;100.00
58975;BME280;44751;52.236;5.178;2023-05-09T01:10:54;101568.16;;;14.18;100.00
58975;BME280;44751;52.236;5.178;2023-05-09T01:13:31;101569.66;;;14.21;100.00
58975;BME280;44751;52.236;5.178;2023-05-09T01:16:11;101564.03;;;14.23;100.00
58975;BME280;44751;52.236;5.178;2023-05-09T01:18:47;101560.09;;;14.25;100.00
58975;BME280;44751;52.236;5.178;2023-05-09T01:21:19;101555.03;;;14.22;100.00
58975;BME280;44751;52.236;5.178;2023-05-09T01:29:30;101548.94;;;14.20;100.00
58975;BME280;44751;52.236;5.178;2023-05-09T01:32:02;101540.53;;;14.15;100.00
58975;BME280;44751;52.236;5.178;2023-05-09T01:34:31;101543.91;;;14.17;100.00
58975;BME280;44751;52.236;5.178;2023-05-09T01:36:59;101536.22;;;14.20;100.00
58975;BME280;44751;52.236;5.178;2023-05-09T01:39:27;101538.00;;;14.13;100.00
58975;BME280;44751;52.236;5.178;2023-05-09T01:41:56;101538.56;;;14.09;100.00
58975;BME280;44751;52.236;5.178;2023-05-09T01:44:31;101544.28;;;14.14;100.00
58975;BME280;44751;52.236;5.178;2023-05-09T01:47:01;101533.59;;;14.12;100.00
58975;BME280;44751;52.236;5.178;2023-05-09T01:49:30;101536.31;;;14.12;100.00
58975;BME280;44751;52.236;5.178;2023-05-09T01:52:03;101527.31;;;14.12;100.00
58975;BME280;44751;52.236;5.178;2023-05-09T01:54:30;101524.78;;;14.10;100.00
58975;BME280;44751;52.236;5.178;2023-05-09T01:56:58;101524.50;;;14.05;100.00
58975;BME280;44751;52.236;5.178;2023-05-09T01:59:26;101522.66;;;14.05;100.00
58975;BME280;44751;52.236;5.178;2023-05-09T02:01:53;101523.28;;;14.07;100.00
58975;BME280;44751;52.236;5.178;2023-05-09T02:04:20;101520.22;;;14.11;100.00
58975;BME280;44751;52.236;5.178;2023-05-09T02:06:48;101503.94;;;14.11;100.00
58975;BME280;44751;52.236;5.178;2023-05-09T02:09:19;101509.44;;;14.02;100.00
58975;BME280;44751;52.236;5.178;2023-05-09T02:11:46;101510.75;;;14.06;100.00
58975;BME280;44751;52.236;5.178;2023-05-09T02:14:13;101505.59;;;14.12;100.00
58975;BME280;44751;52.236;5.178;2023-05-09T02:16:40;101507.00;;;14.07;100.00
58975;BME280;44751;52.236;5.178;2023-05-09T02:19:06;101500.94;;;14.05;100.00
58975;BME280;44751;52.236;5.178;2023-05-09T02:21:33;101504.13;;;13.94;100.00
58975;BME280;44751;52.236;5.178;2023-05-09T02:23:59;101499.53;;;14.10;100.00
58975;BME280;44751;52.236;5.178;2023-05-09T02:26:27;101501.03;;;14.12;100.00
58975;BME280;44751;52.236;5.178;2023-05-09T02:28:54;101493.53;;;14.14;100.00
58975;BME280;44751;52.236;5.178;2023-05-09T02:31:23;101492.72;;;14.14;100.00
58975;BME280;44751;52.236;5.178;2023-05-09T02:33:52;101492.34;;;14.17;100.00
58975;BME280;44751;52.236;5.178;2023-05-09T02:36:19;101484.19;;;14.17;100.00
58975;BME280;44751;52.236;5.178;2023-05-09T02:38:47;101489.63;;;14.17;100.00
58975;BME280;44751;52.236;5.178;2023-05-09T02:41:14;101500.19;;;14.12;100.00
58975;BME280;44751;52.236;5.178;2023-05-09T02:43:41;101499.53;;;14.10;100.00
58975;BME280;44751;52.236;5.178;2023-05-09T02:46:08;101496.34;;;14.06;100.00
58975;BME280;44751;52.236;5.178;2023-05-09T02:48:35;101491.84;;;14.13;100.00
58975;BME280;44751;52.236;5.178;2023-05-09T02:51:02;101488.50;;;14.11;100.00
58975;BME280;44751;52.236;5.178;2023-05-09T02:53:29;101485.59;;;14.13;100.00
58975;BME280;44751;52.236;5.178;2023-05-09T02:55:55;101480.19;;;14.13;100.00
58975;BME280;44751;52.236;5.178;2023-05-09T02:58:22;101480.19;;;14.13;100.00
58975;BME280;44751;52.236;5.178;2023-05-09T03:00:49;101469.69;;;14.10;100.00
58975;BME280;44751;52.236;5.178;2023-05-09T03:03:18;101464.72;;;14.13;100.00
58975;BME280;44751;52.236;5.178;2023-05-09T03:05:46;101461.56;;;14.10;100.00
58975;BME280;44751;52.236;5.178;2023-05-09T03:08:12;101459.28;;;14.13;100.00
58975;BME280;44751;52.236;5.178;2023-05-09T03:10:38;101452.56;;;14.09;100.00
58975;BME280;44751;52.236;5.178;2023-05-09T03:13:05;101454.25;;;14.10;100.00
58975;BME280;44751;52.236;5.178;2023-05-09T03:15:31;101444.69;;;14.14;100.00
58975;BME280;44751;52.236;5.178;2023-05-09T03:17:58;101453.22;;;14.11;100.00
58975;BME280;44751;52.236;5.178;2023-05-09T03:20:26;101450.72;;;14.10;100.00
58975;BME280;44751;52.236;5.178;2023-05-09T03:22:52;101450.88;;;14.08;100.00
58975;BME280;44751;52.236;5.178;2023-05-09T03:25:18;101442.56;;;14.10;100.00
58975;BME280;44751;52.236;5.178;2023-05-09T03:27:45;101436.47;;;14.07;100.00
58975;BME280;44751;52.236;5.178;2023-05-09T03:30:12;101435.66;;;14.07;100.00
58975;BME280;44751;52.236;5.178;2023-05-09T03:32:38;101433.84;;;13.99;100.00
58975;BME280;44751;52.236;5.178;2023-05-09T03:35:05;101429.38;;;14.06;100.00
58975;BME280;44751;52.236;5.178;2023-05-09T03:37:31;101418.44;;;14.00;100.00
58975;BME280;44751;52.236;5.178;2023-05-09T03:39:58;101422.19;;;13.99;100.00
58975;BME280;44751;52.236;5.178;2023-05-09T03:42:24;101418.72;;;13.90;100.00
58975;BME280;44751;52.236;5.178;2023-05-09T03:44:50;101407.88;;;13.90;100.00
58975;BME280;44751;52.236;5.178;2023-05-09T03:47:18;101410.56;;;13.90;100.00
58975;BME280;44751;52.236;5.178;2023-05-09T03:49:49;101396.84;;;13.91;100.00
58975;BME280;44751;52.236;5.178;2023-05-09T03:52:17;101397.19;;;13.88;100.00
58975;BME280;44751;52.236;5.178;2023-05-09T03:54:44;101400.47;;;13.84;100.00
58975;BME280;44751;52.236;5.178;2023-05-09T03:57:10;101400.94;;;13.87;100.00
58975;BME280;44751;52.236;5.178;2023-05-09T03:59:40;101400.75;;;13.89;100.00
58975;BME280;44751;52.236;5.178;2023-05-09T04:02:06;101401.31;;;13.84;100.00
58975;BME280;44751;52.236;5.178;2023-05-09T04:04:33;101397.19;;;13.88;100.00
58975;BME280;44751;52.236;5.178;2023-05-09T04:06:59;101396.94;;;13.83;100.00
58975;BME280;44751;52.236;5.178;2023-05-09T04:09:26;101396.63;;;13.78;100.00
58975;BME280;44751;52.236;5.178;2023-05-09T04:11:53;101390.75;;;13.74;100.00
58975;BME280;44751;52.236;5.178;2023-05-09T04:14:21;101379.53;;;13.77;100.00
58975;BME280;44751;52.236;5.178;2023-05-09T04:16:47;101376.16;;;13.75;100.00
58975;BME280;44751;52.236;5.178;2023-05-09T04:19:14;101387.66;;;13.77;100.00
58975;BME280;44751;52.236;5.178;2023-05-09T04:21:40;101384.97;;;13.77;100.00
58975;BME280;44751;52.236;5.178;2023-05-09T04:24:07;101389.84;;;13.82;100.00
58975;BME280;44751;52.236;5.178;2023-05-09T04:26:33;101389.53;;;13.77;100.00
58975;BME280;44751;52.236;5.178;2023-05-09T04:29:02;101380.94;;;13.73;100.00
58975;BME280;44751;52.236;5.178;2023-05-09T04:31:29;101383.84;;;13.72;100.00
58975;BME280;44751;52.236;5.178;2023-05-09T04:33:55;101376.81;;;13.77;100.00
58975;BME280;44751;52.236;5.178;2023-05-09T04:36:23;101378.31;;;13.80;100.00
58975;BME280;44751;52.236;5.178;2023-05-09T04:38:49;101374.09;;;13.77;100.00
58975;BME280;44751;52.236;5.178;2023-05-09T04:41:18;101373.16;;;13.85;100.00
58975;BME280;44751;52.236;5.178;2023-05-09T04:43:45;101371.56;;;13.91;100.00
58975;BME280;44751;52.236;5.178;2023-05-09T04:46:11;101374.34;;;13.98;100.00
58975;BME280;44751;52.236;5.178;2023-05-09T04:48:38;101361.09;;;13.88;100.00
58975;BME280;44751;52.236;5.178;2023-05-09T04:51:04;101364.09;;;13.93;100.00
58975;BME280;44751;52.236;5.178;2023-05-09T04:53:31;101348.75;;;14.00;100.00
58975;BME280;44751;52.236;5.178;2023-05-09T04:56:00;101348.53;;;14.02;100.00
58975;BME280;44751;52.236;5.178;2023-05-09T04:58:27;101351.97;;;14.11;100.00
58975;BME280;44751;52.236;5.178;2023-05-09T05:00:53;101351.25;;;14.02;100.00
58975;BME280;44751;52.236;5.178;2023-05-09T05:03:19;101345.16;;;14.15;100.00
58975;BME280;44751;52.236;5.178;2023-05-09T05:05:46;101343.28;;;14.15;100.00
58975;BME280;44751;52.236;5.178;2023-05-09T05:08:12;101341.88;;;14.19;100.00
58975;BME280;44751;52.236;5.178;2023-05-09T05:10:39;101333.22;;;14.31;100.00
58975;BME280;44751;52.236;5.178;2023-05-09T05:13:05;101337.63;;;14.32;100.00
58975;BME280;44751;52.236;5.178;2023-05-09T05:15:31;101336.38;;;14.35;100.00
58975;BME280;44751;52.236;5.178;2023-05-09T05:17:58;101322.56;;;14.29;100.00
58975;BME280;44751;52.236;5.178;2023-05-09T05:20:24;101319.47;;;14.32;100.00
58975;BME280;44751;52.236;5.178;2023-05-09T05:22:54;101322.50;;;14.44;100.00
58975;BME280;44751;52.236;5.178;2023-05-09T05:25:21;101320.38;;;14.62;100.00
58975;BME280;44751;52.236;5.178;2023-05-09T05:27:48;101318.38;;;14.49;100.00
58975;BME280;44751;52.236;5.178;2023-05-09T05:30:14;101313.66;;;14.57;100.00
58975;BME280;44751;52.236;5.178;2023-05-09T05:32:41;101307.94;;;14.52;100.00
58975;BME280;44751;52.236;5.178;2023-05-09T05:35:12;101308.09;;;14.66;100.00
58975;BME280;44751;52.236;5.178;2023-05-09T05:37:39;101297.75;;;14.54;100.00
58975;BME280;44751;52.236;5.178;2023-05-09T05:40:06;101299.94;;;14.66;100.00
58975;BME280;44751;52.236;5.178;2023-05-09T05:42:33;101309.56;;;14.68;100.00
58975;BME280;44751;52.236;5.178;2023-05-09T05:45:00;101306.34;;;14.80;100.00
58975;BME280;44751;52.236;5.178;2023-05-09T05:47:39;101302.03;;;14.70;100.00
58975;BME280;44751;52.236;5.178;2023-05-09T05:50:06;101299.78;;;14.74;100.00
58975;BME280;44751;52.236;5.178;2023-05-09T05:52:36;101292.56;;;14.81;100.00
58975;BME280;44751;52.236;5.178;2023-05-09T05:55:06;101288.28;;;14.72;100.00
58975;BME280;44751;52.236;5.178;2023-05-09T05:57:33;101294.38;;;14.74;100.00
58975;BME280;44751;52.236;5.178;2023-05-09T06:00:02;101279.69;;;14.68;100.00
58975;BME280;44751;52.236;5.178;2023-05-09T06:02:30;101283.88;;;14.71;100.00
58975;BME280;44751;52.236;5.178;2023-05-09T06:04:59;101284.13;;;14.76;100.00
58975;BME280;44751;52.236;5.178;2023-05-09T06:07:27;101286.72;;;14.84;100.00
58975;BME280;44751;52.236;5.178;2023-05-09T06:09:54;101276.97;;;14.68;100.00
58975;BME280;44751;52.236;5.178;2023-05-09T06:12:20;101271.16;;;14.71;100.00
58975;BME280;44751;52.236;5.178;2023-05-09T06:14:47;101271.44;;;14.77;100.00
58975;BME280;44751;52.236;5.178;2023-05-09T06:17:16;101271.34;;;14.70;100.00
58975;BME280;44751;52.236;5.178;2023-05-09T06:19:46;101266.09;;;14.68;100.00
58975;BME280;44751;52.236;5.178;2023-05-09T06:22:12;101268.50;;;14.56;100.00
58975;BME280;44751;52.236;5.178;2023-05-09T06:24:38;101266.88;;;14.62;100.00
58975;BME280;44751;52.236;5.178;2023-05-09T06:27:05;101266.25;;;14.60;100.00
58975;BME280;44751;52.236;5.178;2023-05-09T06:29:34;101264.97;;;14.56;100.00
58975;BME280;44751;52.236;5.178;2023-05-09T06:32:05;101258.63;;;14.49;100.00
58975;BME280;44751;52.236;5.178;2023-05-09T06:34:32;101259.06;;;14.52;100.00
58975;BME280;44751;52.236;5.178;2023-05-09T06:36:58;101253.19;;;14.49;100.00
58975;BME280;44751;52.236;5.178;2023-05-09T06:39:24;101246.44;;;14.38;100.00
58975;BME280;44751;52.236;5.178;2023-05-09T06:41:53;101252.97;;;14.43;100.00
58975;BME280;44751;52.236;5.178;2023-05-09T06:44:20;101253.78;;;14.44;100.00
58975;BME280;44751;52.236;5.178;2023-05-09T06:46:49;101248.34;;;14.44;100.00
58975;BME280;44751;52.236;5.178;2023-05-09T06:49:15;101238.53;;;14.43;100.00
58975;BME280;44751;52.236;5.178;2023-05-09T06:51:42;101235.91;;;14.56;100.00
58975;BME280;44751;52.236;5.178;2023-05-09T06:54:11;101234.78;;;14.44;100.00
58975;BME280;44751;52.236;5.178;2023-05-09T06:56:43;101235.25;;;14.48;100.00
58975;BME280;44751;52.236;5.178;2023-05-09T06:59:10;101228.81;;;14.55;100.00
58975;BME280;44751;52.236;5.178;2023-05-09T07:01:38;101234.00;;;14.50;100.00
58975;BME280;44751;52.236;5.178;2023-05-09T07:04:05;101234.19;;;14.49;100.00
58975;BME280;44751;52.236;5.178;2023-05-09T07:06:38;101235.19;;;14.41;100.00
58975;BME280;44751;52.236;5.178;2023-05-09T07:09:05;101221.75;;;14.32;100.00
58975;BME280;44751;52.236;5.178;2023-05-09T07:11:35;101228.25;;;14.38;100.00
58975;BME280;44751;52.236;5.178;2023-05-09T07:14:02;101222.00;;;14.38;100.00
58975;BME280;44751;52.236;5.178;2023-05-09T07:16:30;101224.09;;;14.42;100.00
58975;BME280;44751;52.236;5.178;2023-05-09T07:18:56;101225.09;;;14.35;100.00
58975;BME280;44751;52.236;5.178;2023-05-09T07:21:23;101211.00;;;14.24;100.00
58975;BME280;44751;52.236;5.178;2023-05-09T07:23:49;101212.81;;;14.39;100.00
58975;BME280;44751;52.236;5.178;2023-05-09T07:26:16;101215.72;;;14.37;100.00
58975;BME280;44751;52.236;5.178;2023-05-09T07:28:45;101217.56;;;14.58;100.00
58975;BME280;44751;52.236;5.178;2023-05-09T07:31:15;101211.44;;;14.50;100.00
58975;BME280;44751;52.236;5.178;2023-05-09T07:33:42;101209.63;;;14.57;100.00
58975;BME280;44751;52.236;5.178;2023-05-09T07:36:08;101212.88;;;14.45;100.00
58975;BME280;44751;52.236;5.178;2023-05-09T07:38:37;101210.28;;;14.37;100.00
58975;BME280;44751;52.236;5.178;2023-05-09T07:41:04;101211.47;;;14.28;100.00
58975;BME280;44751;52.236;5.178;2023-05-09T07:43:32;101209.72;;;14.42;100.00
58975;BME280;44751;52.236;5.178;2023-05-09T07:45:59;101200.28;;;14.38;100.00
58975;BME280;44751;52.236;5.178;2023-05-09T07:48:26;101194.53;;;14.48;100.00
58975;BME280;44751;52.236;5.178;2023-05-09T07:50:52;101199.19;;;14.61;100.00
58975;BME280;44751;52.236;5.178;2023-05-09T07:53:18;101195.69;;;14.67;100.00
58975;BME280;44751;52.236;5.178;2023-05-09T07:55:51;101184.94;;;14.52;100.00
58975;BME280;44751;52.236;5.178;2023-05-09T07:58:18;101192.56;;;14.63;100.00
58975;BME280;44751;52.236;5.178;2023-05-09T08:00:44;101187.13;;;14.63;100.00
58975;BME280;44751;52.236;5.178;2023-05-09T08:03:11;101177.13;;;14.70;100.00
58975;BME280;44751;52.236;5.178;2023-05-09T08:05:41;101175.47;;;14.76;100.00
58975;BME280;44751;52.236;5.178;2023-05-09T08:08:09;101171.81;;;14.84;100.00
58975;BME280;44751;52.236;5.178;2023-05-09T08:10:36;101168.47;;;14.89;100.00
58975;BME280;44751;52.236;5.178;2023-05-09T08:13:03;101167.75;;;14.73;100.00
58975;BME280;44751;52.236;5.178;2023-05-09T08:15:29;101160.63;;;14.72;100.00
58975;BME280;44751;52.236;5.178;2023-05-09T08:18:01;101159.31;;;14.90;100.00
58975;BME280;44751;52.236;5.178;2023-05-09T08:20:27;101158.16;;;15.13;100.00
58975;BME280;44751;52.236;5.178;2023-05-09T08:22:56;101154.63;;;15.12;100.00
58975;BME280;44751;52.236;5.178;2023-05-09T08:25:22;101144.94;;;15.03;100.00
58975;BME280;44751;52.236;5.178;2023-05-09T08:27:49;101137.97;;;14.87;100.00
58975;BME280;44751;52.236;5.178;2023-05-09T08:30:18;101136.13;;;14.94;100.00
58975;BME280;44751;52.236;5.178;2023-05-09T08:32:45;101134.03;;;14.89;100.00
58975;BME280;44751;52.236;5.178;2023-05-09T08:35:15;101131.72;;;14.93;100.00
58975;BME280;44751;52.236;5.178;2023-05-09T08:37:41;101126.16;;;15.01;100.00
58975;BME280;44751;52.236;5.178;2023-05-09T08:40:08;101121.28;;;14.90;100.00
58975;BME280;44751;52.236;5.178;2023-05-09T08:42:36;101119.84;;;14.94;100.00
58975;BME280;44751;52.236;5.178;2023-05-09T08:45:12;101128.41;;;14.97;100.00
58975;BME280;44751;52.236;5.178;2023-05-09T08:47:40;101125.72;;;15.04;100.00
58975;BME280;44751;52.236;5.178;2023-05-09T08:50:08;101124.47;;;15.07;100.00
58975;BME280;44751;52.236;5.178;2023-05-09T08:52:38;101116.66;;;14.90;100.00
58975;BME280;44751;52.236;5.178;2023-05-09T08:55:05;101116.84;;;14.82;100.00
58975;BME280;44751;52.236;5.178;2023-05-09T08:57:32;101113.94;;;14.90;100.00
58975;BME280;44751;52.236;5.178;2023-05-09T09:00:00;101101.41;;;14.82;100.00
58975;BME280;44751;52.236;5.178;2023-05-09T09:03:00;101101.69;;;15.01;100.00
58975;BME280;44751;52.236;5.178;2023-05-09T09:05:42;101102.91;;;14.98;100.00
58975;BME280;44751;52.236;5.178;2023-05-09T09:08:10;101095.06;;;14.75;100.00
58975;BME280;44751;52.236;5.178;2023-05-09T09:10:39;101090.06;;;14.79;100.00
58975;BME280;44751;52.236;5.178;2023-05-09T09:13:16;101097.22;;;14.87;100.00
58975;BME280;44751;52.236;5.178;2023-05-09T09:15:45;101102.06;;;14.91;100.00
58975;BME280;44751;52.236;5.178;2023-05-09T09:18:17;101094.91;;;14.83;100.00
58975;BME280;44751;52.236;5.178;2023-05-09T09:20:56;101096.63;;;14.91;100.00
58975;BME280;44751;52.236;5.178;2023-05-09T09:23:25;101089.06;;;14.80;100.00
58975;BME280;44751;52.236;5.178;2023-05-09T09:26:01;101088.88;;;14.88;100.00
58975;BME280;44751;52.236;5.178;2023-05-09T09:28:29;101085.16;;;15.03;100.00
58975;BME280;44751;52.236;5.178;2023-05-09T09:30:56;101088.31;;;15.00;100.00
58975;BME280;44751;52.236;5.178;2023-05-09T09:33:24;101076.44;;;15.14;100.00
58975;BME280;44751;52.236;5.178;2023-05-09T09:35:52;101082.50;;;15.09;100.00
58975;BME280;44751;52.236;5.178;2023-05-09T09:38:25;101079.09;;;15.01;100.00
58975;BME280;44751;52.236;5.178;2023-05-09T09:40:53;101077.00;;;15.03;100.00
58975;BME280;44751;52.236;5.178;2023-05-09T09:43:27;101073.00;;;14.92;100.00
58975;BME280;44751;52.236;5.178;2023-05-09T09:46:00;101072.22;;;14.98;100.00
58975;BME280;44751;52.236;5.178;2023-05-09T09:48:32;101071.13;;;14.92;100.00
58975;BME280;44751;52.236;5.178;2023-05-09T09:51:17;101069.25;;;14.93;100.00
58975;BME280;44751;52.236;5.178;2023-05-09T09:53:47;101068.44;;;14.99;100.00
58975;BME280;44751;52.236;5.178;2023-05-09T09:56:13;101065.13;;;15.04;100.00
58975;BME280;44751;52.236;5.178;2023-05-09T09:58:40;101064.69;;;15.07;100.00
58975;BME280;44751;52.236;5.178;2023-05-09T10:01:10;101065.13;;;15.10;100.00
58975;BME280;44751;52.236;5.178;2023-05-09T10:03:42;101065.97;;;15.11;100.00
58975;BME280;44751;52.236;5.178;2023-05-09T10:06:14;101061.81;;;15.15;100.00
58975;BME280;44751;52.236;5.178;2023-05-09T10:08:44;101061.56;;;15.10;100.00
58975;BME280;44751;52.236;5.178;2023-05-09T10:11:15;101053.22;;;15.05;100.00
58975;BME280;44751;52.236;5.178;2023-05-09T10:13:42;101063.66;;;15.08;100.00
58975;BME280;44751;52.236;5.178;2023-05-09T10:16:10;101057.16;;;15.02;100.00
58975;BME280;44751;52.236;5.178;2023-05-09T10:18:36;101054.44;;;14.95;100.00
58975;BME280;44751;52.236;5.178;2023-05-09T10:21:13;101059.69;;;15.04;100.00
58975;BME280;44751;52.236;5.178;2023-05-09T10:23:42;101049.63;;;15.04;100.00
58975;BME280;44751;52.236;5.178;2023-05-09T10:26:22;101056.13;;;15.10;100.00
58975;BME280;44751;52.236;5.178;2023-05-09T10:28:54;101058.44;;;15.06;100.00
58975;BME280;44751;52.236;5.178;2023-05-09T10:31:29;101050.88;;;15.02;100.00
58975;BME280;44751;52.236;5.178;2023-05-09T10:34:00;101053.38;;;14.90;100.00
58975;BME280;44751;52.236;5.178;2023-05-09T10:36:29;101049.22;;;15.01;100.00
58975;BME280;44751;52.236;5.178;2023-05-09T10:38:57;101040.94;;;14.74;100.00
58975;BME280;44751;52.236;5.178;2023-05-09T10:41:23;101039.34;;;14.86;100.00
58975;BME280;44751;52.236;5.178;2023-05-09T10:43:51;101040.38;;;14.85;100.00
58975;BME280;44751;52.236;5.178;2023-05-09T10:46:23;101038.00;;;14.68;100.00
58975;BME280;44751;52.236;5.178;2023-05-09T10:48:51;101024.28;;;14.41;100.00
58975;BME280;44751;52.236;5.178;2023-05-09T10:51:18;101017.91;;;14.56;100.00
58975;BME280;44751;52.236;5.178;2023-05-09T10:53:47;101024.69;;;14.80;100.00
58975;BME280;44751;52.236;5.178;2023-05-09T10:56:32;101011.78;;;14.89;100.00
58975;BME280;44751;52.236;5.178;2023-05-09T10:59:00;101023.34;;;15.18;100.00
58975;BME280;44751;52.236;5.178;2023-05-09T11:01:33;101015.38;;;15.03;100.00
58975;BME280;44751;52.236;5.178;2023-05-09T11:04:13;101017.41;;;14.94;100.00
58975;BME280;44751;52.236;5.178;2023-05-09T11:09:31;101004.69;;;14.95;100.00
58975;BME280;44751;52.236;5.178;2023-05-09T11:11:59;101006.13;;;14.84;100.00
58975;BME280;44751;52.236;5.178;2023-05-09T11:14:42;100996.13;;;14.91;100.00
58975;BME280;44751;52.236;5.178;2023-05-09T11:22:23;100999.47;;;14.93;100.00
58975;BME280;44751;52.236;5.178;2023-05-09T11:25:11;100989.00;;;14.90;100.00
58975;BME280;44751;52.236;5.178;2023-05-09T11:30:05;100984.88;;;15.01;100.00
58975;BME280;44751;52.236;5.178;2023-05-09T11:32:40;100982.38;;;15.13;100.00
58975;BME280;44751;52.236;5.178;2023-05-09T11:35:15;100973.75;;;15.03;100.00
58975;BME280;44751;52.236;5.178;2023-05-09T11:37:47;100977.56;;;15.15;100.00
58975;BME280;44751;52.236;5.178;2023-05-09T11:40:18;100970.69;;;15.19;100.00
58975;BME280;44751;52.236;5.178;2023-05-09T11:42:48;100960.63;;;15.13;100.00
58975;BME280;44751;52.236;5.178;2023-05-09T11:45:16;100973.16;;;15.07;100.00
58975;BME280;44751;52.236;5.178;2023-05-09T11:48:01;100958.13;;;15.18;100.00
58975;BME280;44751;52.236;5.178;2023-05-09T11:50:30;100958.97;;;15.19;100.00
58975;BME280;44751;52.236;5.178;2023-05-09T11:52:57;100959.81;;;15.26;100.00
58975;BME280;44751;52.236;5.178;2023-05-09T11:55:26;100948.94;;;15.19;100.00
58975;BME280;44751;52.236;5.178;2023-05-09T11:57:56;100954.38;;;15.26;100.00
58975;BME280;44751;52.236;5.178;2023-05-09T12:00:23;100954.38;;;15.19;100.00
58975;BME280;44751;52.236;5.178;2023-05-09T12:02:51;100942.84;;;15.10;100.00
58975;BME280;44751;52.236;5.178;2023-05-09T12:05:20;100941.41;;;15.01;100.00
58975;BME280;44751;52.236;5.178;2023-05-09T12:07:48;100939.50;;;15.08;100.00
58975;BME280;44751;52.236;5.178;2023-05-09T12:10:18;100936.38;;;15.05;100.00
58975;BME280;44751;52.236;5.178;2023-05-09T12:12:49;100938.06;;;15.19;100.00
58975;BME280;44751;52.236;5.178;2023-05-09T12:15:16;100936.16;;;15.20;100.00
58975;BME280;44751;52.236;5.178;2023-05-09T12:17:44;100934.09;;;15.15;100.00
58975;BME280;44751;52.236;5.178;2023-05-09T12:20:13;100938.88;;;15.06;100.00
58975;BME280;44751;52.236;5.178;2023-05-09T12:22:42;100933.84;;;15.17;100.00
58975;BME280;44751;52.236;5.178;2023-05-09T12:25:09;100929.06;;;15.19;100.00
58975;BME280;44751;52.236;5.178;2023-05-09T12:27:37;100935.13;;;15.14;100.00
58975;BME280;44751;52.236;5.178;2023-05-09T12:30:05;100939.94;;;15.12;100.00
58975;BME280;44751;52.236;5.178;2023-05-09T12:32:34;100927.38;;;15.04;100.00
58975;BME280;44751;52.236;5.178;2023-05-09T12:35:03;100923.44;;;15.14;100.00
58975;BME280;44751;52.236;5.178;2023-05-09T12:37:30;100927.00;;;15.28;100.00
58975;BME280;44751;52.236;5.178;2023-05-09T12:40:11;100928.84;;;15.27;100.00
58975;BME280;44751;52.236;5.178;2023-05-09T12:42:42;100915.69;;;15.24;100.00
58975;BME280;44751;52.236;5.178;2023-05-09T12:45:09;100919.03;;;15.19;100.00
58975;BME280;44751;52.236;5.178;2023-05-09T12:47:36;100920.50;;;15.15;100.00
58975;BME280;44751;52.236;5.178;2023-05-09T12:50:04;100912.31;;;15.08;100.00
58975;BME280;44751;52.236;5.178;2023-05-09T12:52:36;100916.94;;;15.28;100.00
58975;BME280;44751;52.236;5.178;2023-05-09T12:57:38;100911.31;;;15.09;100.00
58975;BME280;44751;52.236;5.178;2023-05-09T13:00:07;100899.78;;;15.07;100.00
58975;BME280;44751;52.236;5.178;2023-05-09T13:02:35;100902.50;;;15.07;100.00
58975;BME280;44751;52.236;5.178;2023-05-09T13:05:11;100895.59;;;15.12;100.00
58975;BME280;44751;52.236;5.178;2023-05-09T13:07:46;100896.03;;;15.29;100.00